Time;durP1;ratioP1;P1;durP2;ratioP2;P2;SDS_P1;SDS_P2;PMS_P1;PMS_P2;Temp;Humidity;BMP_temperature;BMP_pressure;BME280_temperature;BME280_humidity;BME280_pressure;Samples;Min_cycle;Max_cycle;Signal;HPM_P1;HPM_P2
2023/12/24 00:02:05;;;;;;;;;;;;;;;5.39;70.51;99087.63;4452211;32;33591;-74
2023/12/24 00:04:33;;;;;;;;;;;;;;;5.63;69.77;99085.47;4451360;32;34149;-73
2023/12/24 00:07:00;;;;;;;;;;;;;;;5.61;69.75;99094.78;4452127;32;34901;-74
2023/12/24 00:09:27;;;;;;;;;;;;;;;5.75;69.49;99098.06;4449987;32;33080;-74
2023/12/24 00:11:54;;;;;;;;;;;;;;;5.76;69.44;99094.72;4449716;32;33826;-74
2023/12/24 00:14:22;;;;;;;;;;;;;;;5.66;69.75;99089.88;4450855;32;35144;-74
2023/12/24 00:16:49;;;;;;;;;;;;;;;5.64;69.92;99088.91;4453011;32;34597;-74
2023/12/24 00:19:16;;;;;;;;;;;;;;;5.62;70.02;99100.78;4448323;32;34148;-73
2023/12/24 00:21:43;;;;;;;;;;;;;;;5.67;70.06;99102.81;4452612;32;34743;-73
2023/12/24 00:24:11;;;;;;;;;;;;;;;5.82;69.56;99100.16;4451520;32;35030;-73
2023/12/24 00:26:39;;;;;;;;;;;;;;;5.94;69.05;99104.19;4451646;32;34188;-74
2023/12/24 00:29:06;;;;;;;;;;;;;;;6.09;68.32;99103.31;4451618;32;33353;-74
2023/12/24 00:31:34;;;;;;;;;;;;;;;5.96;68.75;99103.47;4452318;32;34816;-73
2023/12/24 00:34:01;;;;;;;;;;;;;;;6.00;68.50;99107.97;4451137;32;34954;-73
2023/12/24 00:36:28;;;;;;;;;;;;;;;5.92;68.64;99096.38;4446542;32;34906;-73
2023/12/24 00:38:56;;;;;;;;;;;;;;;5.90;68.77;99103.13;4447680;32;34190;-74
2023/12/24 00:41:23;;;;;;;;;;;;;;;5.69;69.52;99126.88;4453451;32;33879;-73
2023/12/24 00:43:51;;;;;;;;;;;;;;;5.74;69.53;99110.81;4449904;32;34111;-73
2023/12/24 00:46:18;;;;;;;;;;;;;;;5.93;69.01;99113.59;4448163;32;33814;-74
2023/12/24 00:48:46;;;;;;;;;;;;;;;5.87;68.87;99109.00;4444152;32;33313;-73
2023/12/24 00:51:13;;;;;;;;;;;;;;;5.95;68.61;99117.16;4450095;32;34065;-74
2023/12/24 00:53:40;;;;;;;;;;;;;;;5.90;68.97;99133.97;4446649;32;34811;-73
2023/12/24 00:56:08;;;;;;;;;;;;;;;5.85;68.80;99143.12;4448297;32;33499;-74
2023/12/24 00:58:35;;;;;;;;;;;;;;;5.93;69.02;99146.09;4442353;32;32932;-74
2023/12/24 01:01:03;;;;;;;;;;;;;;;5.88;69.04;99151.00;4437934;32;34154;-73
2023/12/24 01:03:30;;;;;;;;;;;;;;;5.83;69.41;99142.16;4447868;32;34828;-74
2023/12/24 01:05:57;;;;;;;;;;;;;;;5.84;69.55;99149.09;4450823;32;33850;-74
2023/12/24 01:08:25;;;;;;;;;;;;;;;5.51;71.04;99154.19;4452230;32;34293;-73
2023/12/24 01:10:52;;;;;;;;;;;;;;;5.69;70.61;99157.72;4450294;32;33941;-74
2023/12/24 01:13:20;;;;;;;;;;;;;;;5.78;70.46;99156.47;4448971;32;33938;-73
2023/12/24 01:15:47;;;;;;;;;;;;;;;5.78;70.21;99148.75;4434984;32;32297;-73
2023/12/24 01:18:15;;;;;;;;;;;;;;;5.68;70.22;99148.25;4429123;32;31511;-74
2023/12/24 01:20:43;;;;;;;;;;;;;;;5.80;70.40;99154.87;4451678;32;34726;-73
2023/12/24 01:23:10;;;;;;;;;;;;;;;5.62;70.74;99147.03;4454671;32;34270;-73
2023/12/24 01:25:38;;;;;;;;;;;;;;;5.71;70.76;99157.81;4436442;32;32242;-73
2023/12/24 01:28:05;;;;;;;;;;;;;;;5.61;71.11;99161.56;4451121;32;34090;-73
2023/12/24 01:30:32;;;;;;;;;;;;;;;5.70;70.75;99156.94;4439978;32;32740;-73
2023/12/24 01:33:00;;;;;;;;;;;;;;;5.70;70.82;99153.50;4448270;32;34121;-73
2023/12/24 01:35:27;;;;;;;;;;;;;;;5.89;70.10;99157.91;4446597;32;34042;-73
2023/12/24 01:37:55;;;;;;;;;;;;;;;5.85;70.11;99166.25;4452111;32;33442;-73
2023/12/24 01:40:22;;;;;;;;;;;;;;;6.04;69.09;99163.00;4452591;32;34280;-73
2023/12/24 01:42:50;;;;;;;;;;;;;;;5.75;70.16;99164.00;4444965;32;34491;-73
2023/12/24 01:45:17;;;;;;;;;;;;;;;5.86;70.03;99161.19;4449369;32;34036;-73
2023/12/24 01:47:45;;;;;;;;;;;;;;;5.79;70.03;99165.94;4452065;32;33505;-74
2023/12/24 01:50:19;;;;;;;;;;;;;;;5.93;69.66;99170.13;4452188;32;34309;-74
2023/12/24 01:52:46;;;;;;;;;;;;;;;5.85;70.18;99161.13;4443536;32;34273;-73
2023/12/24 01:55:13;;;;;;;;;;;;;;;5.87;69.78;99162.06;4453659;32;34464;-73
2023/12/24 01:57:41;;;;;;;;;;;;;;;5.58;70.83;99165.66;4454687;32;33702;-74
2023/12/24 02:00:09;;;;;;;;;;;;;;;5.91;69.69;99161.47;4451241;32;34788;-74
2023/12/24 02:02:36;;;;;;;;;;;;;;;5.88;69.60;99161.28;4453120;32;33993;-73
2023/12/24 02:05:04;;;;;;;;;;;;;;;5.82;69.98;99160.97;4450831;32;33714;-73
2023/12/24 02:07:34;;;;;;;;;;;;;;;5.74;70.21;99151.94;4452721;32;33108;-74
2023/12/24 02:10:02;;;;;;;;;;;;;;;5.97;69.56;99155.75;4454376;32;33021;-74
2023/12/24 02:12:31;;;;;;;;;;;;;;;5.96;69.57;99154.87;4454877;32;33982;-74
2023/12/24 02:14:58;;;;;;;;;;;;;;;6.03;69.30;99157.00;4445698;32;34146;-74
2023/12/24 02:17:28;;;;;;;;;;;;;;;5.99;69.14;99164.44;4445633;32;33079;-74
2023/12/24 02:19:56;;;;;;;;;;;;;;;6.06;68.94;99162.28;4438926;32;34380;-74
2023/12/24 02:22:24;;;;;;;;;;;;;;;5.93;69.62;99165.00;4431112;32;32355;-73
2023/12/24 02:24:51;;;;;;;;;;;;;;;5.84;69.83;99167.06;4430637;32;32447;-74
2023/12/24 02:27:19;;;;;;;;;;;;;;;5.86;69.80;99174.06;4412348;32;32601;-73
2023/12/24 02:29:47;;;;;;;;;;;;;;;5.90;69.68;99175.09;4436486;32;33831;-74
2023/12/24 02:32:17;;;;;;;;;;;;;;;5.98;69.70;99173.84;4431724;32;34377;-74
2023/12/24 02:34:48;;;;;;;;;;;;;;;5.87;69.97;99175.84;4404126;32;32715;-74
2023/12/24 02:37:15;;;;;;;;;;;;;;;5.92;69.89;99176.06;4410776;32;32460;-74
2023/12/24 02:39:43;;;;;;;;;;;;;;;5.89;69.88;99173.31;4437601;32;34011;-74
2023/12/24 02:42:11;;;;;;;;;;;;;;;6.08;69.59;99177.78;4427347;32;34276;-74
2023/12/24 02:44:40;;;;;;;;;;;;;;;5.99;69.53;99180.78;4428253;32;35050;-74
2023/12/24 02:47:07;;;;;;;;;;;;;;;5.84;69.77;99172.22;4443842;32;33551;-74
2023/12/24 02:49:35;;;;;;;;;;;;;;;5.89;69.65;99183.59;4450410;32;33403;-74
2023/12/24 02:52:02;;;;;;;;;;;;;;;6.09;68.25;99177.87;4450579;32;33851;-74
2023/12/24 02:54:29;;;;;;;;;;;;;;;5.86;69.14;99184.34;4454963;32;34473;-74
2023/12/24 02:56:57;;;;;;;;;;;;;;;6.19;67.53;99173.22;4449615;32;32735;-74
2023/12/24 02:59:26;;;;;;;;;;;;;;;6.06;67.64;99182.84;4451841;32;34339;-74
2023/12/24 03:01:54;;;;;;;;;;;;;;;5.91;68.30;99182.03;4448384;32;34211;-73
2023/12/24 03:04:21;;;;;;;;;;;;;;;5.80;68.64;99172.84;4448605;32;34009;-74
2023/12/24 03:06:49;;;;;;;;;;;;;;;5.63;69.23;99165.09;4450567;32;32896;-73
2023/12/24 03:09:16;;;;;;;;;;;;;;;5.76;69.22;99170.94;4452100;32;34904;-74
2023/12/24 03:11:44;;;;;;;;;;;;;;;5.77;69.23;99165.84;4452153;32;35071;-73
2023/12/24 03:14:11;;;;;;;;;;;;;;;5.71;69.58;99161.25;4451978;32;34261;-74
2023/12/24 03:16:39;;;;;;;;;;;;;;;5.74;69.66;99164.78;4442538;32;33241;-75
2023/12/24 03:19:06;;;;;;;;;;;;;;;5.68;70.09;99163.69;4452142;32;34069;-74
2023/12/24 03:21:33;;;;;;;;;;;;;;;5.80;69.78;99170.28;4443842;32;34899;-74
2023/12/24 03:24:01;;;;;;;;;;;;;;;5.87;69.56;99167.22;4451728;32;33676;-74
2023/12/24 03:26:29;;;;;;;;;;;;;;;5.88;69.34;99172.44;4452461;32;33205;-74
2023/12/24 03:28:56;;;;;;;;;;;;;;;5.92;69.29;99168.34;4447923;32;33221;-74
2023/12/24 03:31:26;;;;;;;;;;;;;;;5.90;69.74;99169.97;4450944;32;34824;-74
2023/12/24 03:33:53;;;;;;;;;;;;;;;5.79;70.37;99165.94;4448321;32;34048;-74
2023/12/24 03:36:21;;;;;;;;;;;;;;;6.03;69.50;99169.84;4439255;32;32936;-74
2023/12/24 03:38:48;;;;;;;;;;;;;;;5.99;69.44;99157.63;4450442;32;34367;-74
2023/12/24 03:41:15;;;;;;;;;;;;;;;5.92;69.56;99165.78;4448288;32;33672;-74
2023/12/24 03:43:42;;;;;;;;;;;;;;;5.84;69.81;99174.78;4441463;32;34798;-74
2023/12/24 03:46:10;;;;;;;;;;;;;;;5.80;70.25;99180.56;4447219;32;32971;-74
2023/12/24 03:48:37;;;;;;;;;;;;;;;5.77;70.66;99168.41;4451234;32;33898;-73
2023/12/24 03:51:05;;;;;;;;;;;;;;;5.81;70.50;99179.75;4449936;32;34968;-74
2023/12/24 03:53:32;;;;;;;;;;;;;;;5.97;70.06;99182.38;4448913;32;33659;-74
2023/12/24 03:56:00;;;;;;;;;;;;;;;6.09;69.80;99184.72;4450711;32;33604;-74
2023/12/24 03:58:28;;;;;;;;;;;;;;;5.90;70.50;99185.37;4451153;32;32705;-73
2023/12/24 04:00:55;;;;;;;;;;;;;;;6.02;70.56;99183.50;4449480;32;34006;-73
2023/12/24 04:03:22;;;;;;;;;;;;;;;6.06;70.10;99177.69;4450028;32;34316;-74
2023/12/24 04:05:50;;;;;;;;;;;;;;;6.03;70.50;99177.56;4445953;32;32092;-74
2023/12/24 04:08:17;;;;;;;;;;;;;;;6.18;70.40;99176.56;4451297;32;34111;-74
2023/12/24 04:10:45;;;;;;;;;;;;;;;6.20;69.62;99169.81;4429989;32;33349;-74
2023/12/24 04:13:13;;;;;;;;;;;;;;;6.16;69.65;99167.91;4451405;32;34047;-74
2023/12/24 04:15:40;;;;;;;;;;;;;;;6.04;70.29;99168.16;4443554;32;33298;-75
2023/12/24 04:18:08;;;;;;;;;;;;;;;5.97;70.57;99166.97;4451343;32;34936;-74
2023/12/24 04:20:36;;;;;;;;;;;;;;;6.16;70.45;99157.63;4450004;32;34835;-74
2023/12/24 04:23:03;;;;;;;;;;;;;;;6.12;70.54;99163.41;4443164;32;34199;-74
2023/12/24 04:25:31;;;;;;;;;;;;;;;6.07;70.24;99163.19;4453125;32;33131;-74
2023/12/24 04:27:58;;;;;;;;;;;;;;;6.22;69.93;99160.50;4450576;32;33954;-74
2023/12/24 04:30:26;;;;;;;;;;;;;;;6.19;69.82;99157.78;4450064;32;35059;-74
2023/12/24 04:32:54;;;;;;;;;;;;;;;6.09;70.20;99157.31;4453600;32;33808;-74
2023/12/24 04:35:22;;;;;;;;;;;;;;;6.22;70.15;99142.50;4451943;32;33062;-74
2023/12/24 04:37:49;;;;;;;;;;;;;;;6.27;69.86;99152.22;4453204;32;33656;-75
2023/12/24 04:40:17;;;;;;;;;;;;;;;6.38;69.05;99150.19;4445656;32;34332;-74
2023/12/24 04:42:44;;;;;;;;;;;;;;;6.14;70.17;99148.94;4449006;32;33900;-74
2023/12/24 04:45:11;;;;;;;;;;;;;;;6.25;69.68;99152.94;4453196;32;32925;-74
2023/12/24 04:47:39;;;;;;;;;;;;;;;6.20;69.93;99149.25;4444630;32;34030;-74
2023/12/24 04:50:07;;;;;;;;;;;;;;;6.22;70.03;99138.25;4452046;32;34923;-73
2023/12/24 04:52:35;;;;;;;;;;;;;;;6.20;70.04;99131.25;4451469;32;34092;-73
2023/12/24 04:55:04;;;;;;;;;;;;;;;6.23;69.92;99141.69;4448652;32;33296;-74
2023/12/24 04:57:31;;;;;;;;;;;;;;;6.30;69.46;99143.78;4450929;32;34628;-74
2023/12/24 04:59:59;;;;;;;;;;;;;;;6.26;69.53;99134.16;4449623;32;33768;-74
2023/12/24 05:02:27;;;;;;;;;;;;;;;6.19;69.81;99132.06;4450559;32;32404;-74
2023/12/24 05:04:55;;;;;;;;;;;;;;;6.30;69.40;99136.06;4441755;32;33275;-74
2023/12/24 05:07:22;;;;;;;;;;;;;;;6.29;69.22;99139.44;4445669;32;34847;-73
2023/12/24 05:09:51;;;;;;;;;;;;;;;6.39;68.66;99131.38;4452347;32;34242;-74
2023/12/24 05:12:18;;;;;;;;;;;;;;;6.18;69.30;99132.84;4437829;32;34257;-74
2023/12/24 05:14:46;;;;;;;;;;;;;;;6.20;69.36;99146.69;4450524;32;33779;-74
2023/12/24 05:17:13;;;;;;;;;;;;;;;6.18;69.55;99148.28;4451966;32;34150;-74
2023/12/24 05:19:40;;;;;;;;;;;;;;;6.09;69.33;99147.00;4423572;32;33539;-74
2023/12/24 05:22:08;;;;;;;;;;;;;;;5.80;70.11;99136.88;4452658;32;34944;-74
2023/12/24 05:24:36;;;;;;;;;;;;;;;5.68;70.85;99148.25;4452233;32;34234;-74
2023/12/24 05:27:03;;;;;;;;;;;;;;;5.78;70.63;99146.19;4452467;32;34194;-74
2023/12/24 05:29:30;;;;;;;;;;;;;;;5.65;71.44;99153.22;4448568;32;34088;-74
2023/12/24 05:31:58;;;;;;;;;;;;;;;5.85;71.13;99154.31;4451628;32;34042;-74
2023/12/24 05:34:25;;;;;;;;;;;;;;;5.92;70.95;99165.78;4447608;32;33152;-73
2023/12/24 05:36:53;;;;;;;;;;;;;;;6.02;70.49;99162.91;4450996;32;33957;-74
2023/12/24 05:39:21;;;;;;;;;;;;;;;6.12;70.10;99160.84;4431231;32;34223;-74
2023/12/24 05:41:48;;;;;;;;;;;;;;;6.29;69.56;99160.88;4445297;32;34157;-73
2023/12/24 05:44:16;;;;;;;;;;;;;;;6.09;70.25;99161.56;4452776;32;33425;-74
2023/12/24 05:46:43;;;;;;;;;;;;;;;6.08;71.06;99163.28;4452698;32;34375;-74
2023/12/24 05:49:10;;;;;;;;;;;;;;;5.93;71.56;99154.72;4448384;32;32585;-74
2023/12/24 05:51:37;;;;;;;;;;;;;;;6.09;71.22;99159.88;4445196;32;34234;-73
2023/12/24 05:54:05;;;;;;;;;;;;;;;6.04;71.53;99160.44;4452336;32;33296;-73
2023/12/24 05:56:32;;;;;;;;;;;;;;;5.82;72.73;99163.53;4449899;32;34719;-74
2023/12/24 05:58:59;;;;;;;;;;;;;;;6.04;72.26;99161.31;4451826;32;34542;-73
2023/12/24 06:01:27;;;;;;;;;;;;;;;6.16;71.97;99157.63;4452365;32;34357;-74
2023/12/24 06:03:54;;;;;;;;;;;;;;;6.20;71.74;99159.53;4451056;32;33006;-74
2023/12/24 06:06:22;;;;;;;;;;;;;;;6.13;72.15;99167.75;4452320;32;34606;-73
2023/12/24 06:08:49;;;;;;;;;;;;;;;6.12;71.79;99173.69;4450683;32;33607;-73
2023/12/24 06:11:17;;;;;;;;;;;;;;;6.22;71.85;99178.50;4452066;32;34273;-73
2023/12/24 06:13:45;;;;;;;;;;;;;;;6.24;71.75;99166.62;4452623;32;33289;-73
2023/12/24 06:16:13;;;;;;;;;;;;;;;6.06;72.51;99180.28;4452022;32;33940;-74
2023/12/24 06:18:40;;;;;;;;;;;;;;;6.20;72.33;99167.25;4450791;32;33941;-74
2023/12/24 06:21:08;;;;;;;;;;;;;;;6.22;72.48;99178.50;4446360;32;33898;-73
2023/12/24 06:23:35;;;;;;;;;;;;;;;6.17;72.72;99179.97;4444980;32;33828;-74
2023/12/24 06:26:03;;;;;;;;;;;;;;;6.20;72.65;99188.72;4449192;32;33884;-74
2023/12/24 06:28:31;;;;;;;;;;;;;;;6.32;72.44;99185.91;4454673;32;34975;-74
2023/12/24 06:30:59;;;;;;;;;;;;;;;6.25;72.48;99199.25;4444316;32;34238;-74
2023/12/24 06:33:26;;;;;;;;;;;;;;;6.33;72.33;99187.66;4439698;32;33914;-74
2023/12/24 06:35:54;;;;;;;;;;;;;;;6.39;72.13;99181.94;4440099;32;32358;-74
2023/12/24 06:38:21;;;;;;;;;;;;;;;6.43;71.95;99197.62;4454217;32;34021;-74
2023/12/24 06:40:49;;;;;;;;;;;;;;;6.48;72.06;99193.59;4438376;32;34274;-74
2023/12/24 06:43:16;;;;;;;;;;;;;;;6.39;71.99;99193.13;4444714;32;33358;-74
2023/12/24 06:45:43;;;;;;;;;;;;;;;6.57;71.77;99202.59;4447562;32;34096;-74
2023/12/24 06:48:10;;;;;;;;;;;;;;;6.56;71.81;99205.97;4453852;32;34650;-74
2023/12/24 06:50:38;;;;;;;;;;;;;;;6.56;71.50;99211.13;4453744;32;34345;-73
2023/12/24 06:53:06;;;;;;;;;;;;;;;6.57;71.34;99211.19;4455865;32;32994;-74
2023/12/24 06:55:34;;;;;;;;;;;;;;;6.57;71.55;99220.62;4448858;32;33583;-74
2023/12/24 06:58:03;;;;;;;;;;;;;;;6.69;70.73;99219.53;4449609;32;34249;-74
2023/12/24 07:00:30;;;;;;;;;;;;;;;6.57;71.15;99218.06;4452660;32;34018;-73
2023/12/24 07:02:57;;;;;;;;;;;;;;;6.69;70.86;99219.53;4451935;32;32501;-74
2023/12/24 07:05:25;;;;;;;;;;;;;;;6.64;70.81;99204.66;4448940;32;34164;-74
2023/12/24 07:07:52;;;;;;;;;;;;;;;6.65;71.07;99203.88;4453472;32;34146;-74
2023/12/24 07:10:20;;;;;;;;;;;;;;;6.69;71.07;99204.09;4452898;32;34282;-74
2023/12/24 07:12:47;;;;;;;;;;;;;;;6.73;71.10;99211.97;4445292;32;32778;-73
2023/12/24 07:15:14;;;;;;;;;;;;;;;6.80;71.38;99214.03;4447766;32;34506;-74
2023/12/24 07:17:42;;;;;;;;;;;;;;;6.79;71.53;99215.72;4452337;32;34245;-73
2023/12/24 07:20:10;;;;;;;;;;;;;;;6.77;71.86;99222.50;4449447;32;34066;-73
2023/12/24 07:22:37;;;;;;;;;;;;;;;6.78;71.90;99223.37;4448228;32;33376;-74
2023/12/24 07:25:04;;;;;;;;;;;;;;;6.94;71.71;99223.34;4447176;32;34453;-74
2023/12/24 07:27:32;;;;;;;;;;;;;;;6.92;71.93;99232.69;4449730;32;34455;-75
2023/12/24 07:29:59;;;;;;;;;;;;;;;6.92;72.17;99236.97;4450093;32;33590;-75
2023/12/24 07:32:27;;;;;;;;;;;;;;;7.05;71.94;99234.16;4450909;32;33294;-75
2023/12/24 07:34:57;;;;;;;;;;;;;;;7.08;72.07;99230.06;4438085;32;34343;-74
2023/12/24 07:37:25;;;;;;;;;;;;;;;7.06;72.75;99241.09;4453208;32;33284;-75
2023/12/24 07:39:52;;;;;;;;;;;;;;;7.09;72.48;99236.09;4453314;32;34323;-74
2023/12/24 07:42:19;;;;;;;;;;;;;;;7.32;71.66;99233.75;4453060;32;32903;-74
2023/12/24 07:44:47;;;;;;;;;;;;;;;7.41;69.40;99234.19;4453740;32;34741;-74
2023/12/24 07:47:14;;;;;;;;;;;;;;;7.41;68.42;99241.94;4453008;32;33669;-74
2023/12/24 07:49:42;;;;;;;;;;;;;;;7.00;69.47;99253.66;4440143;32;33662;-74
2023/12/24 07:52:10;;;;;;;;;;;;;;;6.54;71.87;99254.78;4453752;32;33208;-74
2023/12/24 07:54:37;;;;;;;;;;;;;;;6.93;70.82;99267.03;4416044;32;789312;-74
2023/12/24 07:57:05;;;;;;;;;;;;;;;6.77;70.66;99263.69;4456737;32;33436;-74
2023/12/24 07:59:32;;;;;;;;;;;;;;;6.59;71.51;99279.06;4461538;32;34743;-75
2023/12/24 08:02:00;;;;;;;;;;;;;;;6.34;72.99;99269.19;4459804;32;32714;-74
2023/12/24 08:04:27;;;;;;;;;;;;;;;6.65;73.89;99274.22;4463936;32;33874;-74
2023/12/24 08:06:54;;;;;;;;;;;;;;;6.99;72.00;99273.41;4452855;32;34585;-74
2023/12/24 08:09:23;;;;;;;;;;;;;;;6.87;72.59;99278.78;4452345;32;34172;-74
2023/12/24 08:11:50;;;;;;;;;;;;;;;6.73;73.13;99284.94;4452977;32;33190;-75
2023/12/24 08:14:18;;;;;;;;;;;;;;;6.94;72.65;99271.41;4461323;32;34175;-75
2023/12/24 08:16:45;;;;;;;;;;;;;;;6.92;73.48;99278.16;4447726;32;34292;-76
2023/12/24 08:19:13;;;;;;;;;;;;;;;6.99;73.49;99280.22;4453196;32;33993;-76
2023/12/24 08:21:40;;;;;;;;;;;;;;;7.03;73.33;99277.87;4452652;32;33364;-75
2023/12/24 08:24:08;;;;;;;;;;;;;;;7.23;73.51;99285.72;4438419;32;34155;-74
2023/12/24 08:26:36;;;;;;;;;;;;;;;7.34;71.56;99297.44;4452333;32;33391;-75
2023/12/24 08:29:03;;;;;;;;;;;;;;;7.18;71.99;99306.09;4452611;32;34299;-75
2023/12/24 08:31:30;;;;;;;;;;;;;;;7.06;72.83;99313.19;4451125;32;33728;-75
2023/12/24 08:33:58;;;;;;;;;;;;;;;6.80;73.45;99305.03;4440216;32;34215;-77
2023/12/24 08:36:25;;;;;;;;;;;;;;;6.73;74.37;99297.78;4441512;32;34592;-76
2023/12/24 08:38:53;;;;;;;;;;;;;;;6.79;74.97;99318.69;4454754;32;33978;-75
2023/12/24 08:41:20;;;;;;;;;;;;;;;7.16;72.87;99299.97;4451106;32;32905;-74
2023/12/24 08:43:47;;;;;;;;;;;;;;;7.27;71.21;99314.28;4453165;32;33636;-76
2023/12/24 08:46:15;;;;;;;;;;;;;;;7.12;71.12;99318.66;4455174;32;34272;-76
2023/12/24 08:48:42;;;;;;;;;;;;;;;6.93;74.37;99331.41;4460126;32;34654;-76
2023/12/24 08:51:10;;;;;;;;;;;;;;;6.80;74.08;99325.63;4452561;32;33447;-76
2023/12/24 08:53:37;;;;;;;;;;;;;;;6.80;73.89;99320.47;4451992;32;33936;-76
2023/12/24 08:56:05;;;;;;;;;;;;;;;7.07;73.18;99338.16;4453292;32;33672;-77
2023/12/24 08:58:32;;;;;;;;;;;;;;;7.36;71.68;99329.31;4452816;32;34903;-76
2023/12/24 09:00:59;;;;;;;;;;;;;;;7.14;72.34;99342.78;4456178;32;33390;-76
2023/12/24 09:03:26;;;;;;;;;;;;;;;7.05;72.96;99337.16;4453168;32;34042;-77
2023/12/24 09:05:54;;;;;;;;;;;;;;;7.06;73.65;99333.81;4452174;32;34015;-76
2023/12/24 09:08:21;;;;;;;;;;;;;;;7.10;73.87;99340.88;4451333;32;34186;-77
2023/12/24 09:10:49;;;;;;;;;;;;;;;7.49;72.54;99338.53;4451029;32;33274;-76
2023/12/24 09:13:16;;;;;;;;;;;;;;;7.27;73.66;99334.00;4450838;32;34154;-77
2023/12/24 09:15:46;;;;;;;;;;;;;;;7.38;73.64;99331.94;4452048;32;33177;-76
2023/12/24 09:18:13;;;;;;;;;;;;;;;7.64;73.21;99326.41;4453101;32;35403;-74
2023/12/24 09:20:41;;;;;;;;;;;;;;;7.66;73.54;99324.78;4439639;32;33358;-75
2023/12/24 09:23:08;;;;;;;;;;;;;;;7.98;73.20;99332.31;4435098;32;32481;-76
2023/12/24 09:25:36;;;;;;;;;;;;;;;8.05;72.41;99319.78;4443838;32;34071;-76
2023/12/24 09:28:03;;;;;;;;;;;;;;;8.08;72.29;99325.06;4448255;32;34166;-76
2023/12/24 09:30:30;;;;;;;;;;;;;;;8.21;71.86;99335.97;4452935;32;33441;-76
2023/12/24 09:32:58;;;;;;;;;;;;;;;8.28;71.60;99327.69;4448989;32;33646;-75
2023/12/24 09:35:27;;;;;;;;;;;;;;;7.47;73.41;99327.25;4437274;32;32367;-77
2023/12/24 09:37:55;;;;;;;;;;;;;;;7.54;78.84;99339.66;4453033;32;33538;-76
2023/12/24 09:40:22;;;;;;;;;;;;;;;8.02;74.27;99335.09;4449151;32;33974;-77
2023/12/24 09:42:50;;;;;;;;;;;;;;;7.73;75.50;99330.25;4459536;32;34928;-76
2023/12/24 09:45:17;;;;;;;;;;;;;;;7.95;74.97;99333.03;4434170;32;32631;-75
2023/12/24 09:47:45;;;;;;;;;;;;;;;8.52;84.71;99334.81;4433311;32;34295;-76
2023/12/24 09:50:12;;;;;;;;;;;;;;;8.73;79.57;99342.62;4450339;32;33077;-77
2023/12/24 09:52:40;;;;;;;;;;;;;;;8.76;78.65;99340.19;4432879;32;34081;-76
2023/12/24 09:55:07;;;;;;;;;;;;;;;8.90;76.61;99348.56;4447504;32;34194;-77
2023/12/24 09:57:34;;;;;;;;;;;;;;;8.82;76.27;99349.09;4450955;32;33860;-77
2023/12/24 10:00:04;;;;;;;;;;;;;;;8.84;76.36;99347.44;4445278;32;34174;-77
2023/12/24 10:02:33;;;;;;;;;;;;;;;8.77;76.12;99345.44;4450956;32;34442;-77
2023/12/24 10:05:03;;;;;;;;;;;;;;;8.80;74.79;99339.50;4454033;32;33362;-77
2023/12/24 10:07:38;;;;;;;;;;;;;;;8.87;75.18;99338.09;4431684;32;34050;-77
2023/12/24 10:10:07;;;;;;;;;;;;;;;9.14;73.41;99334.12;4454890;32;33919;-77
2023/12/24 10:12:34;;;;;;;;;;;;;;;9.17;73.18;99336.81;4454535;32;33644;-76
2023/12/24 10:15:02;;;;;;;;;;;;;;;9.15;73.58;99328.13;4453634;32;34255;-78
2023/12/24 10:17:35;;;;;;;;;;;;;;;9.21;73.79;99323.25;4454618;32;34708;-76
2023/12/24 10:20:03;;;;;;;;;;;;;;;9.36;73.33;99317.81;4451122;32;34126;-76
2023/12/24 10:22:31;;;;;;;;;;;;;;;9.32;73.68;99315.91;4453950;32;34810;-76
2023/12/24 10:24:58;;;;;;;;;;;;;;;9.48;73.13;99312.25;4451555;32;34909;-76
2023/12/24 10:27:25;;;;;;;;;;;;;;;10.28;92.18;99310.25;4451736;32;34326;-76
2023/12/24 10:29:53;;;;;;;;;;;;;;;10.14;83.17;99311.41;4454568;32;33421;-76
2023/12/24 10:32:24;;;;;;;;;;;;;;;9.98;82.22;99310.81;4440458;32;34710;-77
2023/12/24 10:34:58;;;;;;;;;;;;;;;9.68;77.90;99310.50;4454555;32;35028;-76
2023/12/24 10:37:32;;;;;;;;;;;;;;;9.88;76.13;99318.19;4457380;32;33966;-76
2023/12/24 10:40:07;;;;;;;;;;;;;;;9.41;76.94;99313.72;4458360;32;33412;-76
2023/12/24 10:42:36;;;;;;;;;;;;;;;9.76;73.68;99318.56;4447495;32;32387;-76
2023/12/24 10:45:06;;;;;;;;;;;;;;;9.47;75.41;99315.69;4452120;32;34751;-76
2023/12/24 10:47:34;;;;;;;;;;;;;;;9.43;74.51;99324.13;4452984;32;35033;-76
2023/12/24 10:50:03;;;;;;;;;;;;;;;9.48;73.65;99316.56;4424631;32;31694;-76
2023/12/24 10:52:30;;;;;;;;;;;;;;;9.69;71.94;99324.31;4453307;32;33878;-76
2023/12/24 10:54:58;;;;;;;;;;;;;;;9.35;74.65;99320.31;4452491;32;34016;-76
2023/12/24 10:57:44;;;;;;;;;;;;;;;9.36;72.81;99316.94;4453545;32;34860;-76
2023/12/24 11:00:16;;;;;;;;;;;;;;;9.76;70.09;99310.81;4453423;32;33500;-76
2023/12/24 11:02:45;;;;;;;;;;;;;;;9.68;71.28;99304.44;4452769;32;34850;-76
2023/12/24 11:05:32;;;;;;;;;;;;;;;9.97;69.40;99293.56;4453349;32;34893;-76
2023/12/24 11:08:00;;;;;;;;;;;;;;;9.24;73.46;99296.62;4454012;32;34257;-76
2023/12/24 11:10:43;;;;;;;;;;;;;;;8.90;75.29;99290.03;4440082;32;31644;-76
2023/12/24 11:13:12;;;;;;;;;;;;;;;9.48;72.92;99281.25;4451500;32;33664;-76
2023/12/24 11:15:44;;;;;;;;;;;;;;;9.25;73.15;99291.53;4432915;32;33504;-76
2023/12/24 11:18:12;;;;;;;;;;;;;;;9.56;71.21;99287.63;4453561;32;34439;-76
2023/12/24 11:20:42;;;;;;;;;;;;;;;9.88;69.48;99272.50;4454214;32;34174;-76
2023/12/24 11:23:09;;;;;;;;;;;;;;;9.58;71.66;99283.41;4453532;32;32982;-76
2023/12/24 11:25:55;;;;;;;;;;;;;;;9.78;71.67;99266.06;4448106;32;34803;-77
2023/12/24 11:28:23;;;;;;;;;;;;;;;10.22;68.49;99258.25;4450116;32;34076;-77
2023/12/24 11:30:50;;;;;;;;;;;;;;;10.31;66.51;99263.78;4452386;32;32889;-76
2023/12/24 11:33:30;;;;;;;;;;;;;;;10.59;65.08;99254.47;4453510;32;35042;-77
2023/12/24 11:36:01;;;;;;;;;;;;;;;10.89;63.38;99258.94;4448919;32;34880;-76
2023/12/24 11:38:39;;;;;;;;;;;;;;;10.94;63.29;99262.59;4451181;32;35477;-76
2023/12/24 11:41:10;;;;;;;;;;;;;;;10.83;63.09;99254.44;4443910;32;34278;-76
2023/12/24 11:43:39;;;;;;;;;;;;;;;11.00;62.88;99257.59;4434951;32;32384;-76
2023/12/24 11:46:10;;;;;;;;;;;;;;;11.04;62.73;99249.09;4452150;32;34785;-75
2023/12/24 11:48:37;;;;;;;;;;;;;;;10.80;63.96;99255.22;4458619;32;34487;-77
2023/12/24 11:51:05;;;;;;;;;;;;;;;10.72;64.45;99261.84;4451692;32;33952;-76
2023/12/24 11:53:39;;;;;;;;;;;;;;;10.55;64.99;99262.94;4453757;32;33851;-76
2023/12/24 11:56:12;;;;;;;;;;;;;;;10.88;64.35;99259.78;4453847;32;33823;-76
2023/12/24 11:58:41;;;;;;;;;;;;;;;10.86;64.44;99261.44;4453888;32;34810;-77
2023/12/24 12:01:09;;;;;;;;;;;;;;;10.84;64.53;99252.75;4449954;32;34125;-77
2023/12/24 12:03:36;;;;;;;;;;;;;;;10.78;64.75;99250.81;4454268;32;34705;-77
2023/12/24 12:06:04;;;;;;;;;;;;;;;10.79;64.71;99247.37;4453160;32;34914;-77
2023/12/24 12:08:32;;;;;;;;;;;;;;;10.82;64.72;99245.78;4449889;32;34038;-76
2023/12/24 12:11:00;;;;;;;;;;;;;;;11.08;64.31;99250.97;4439828;32;32917;-76
2023/12/24 12:13:28;;;;;;;;;;;;;;;11.21;63.83;99232.41;4439530;32;32468;-76
2023/12/24 12:15:55;;;;;;;;;;;;;;;11.13;64.01;99218.31;4453435;32;33895;-76
2023/12/24 12:18:23;;;;;;;;;;;;;;;10.95;64.68;99207.31;4453995;32;34916;-76
2023/12/24 12:20:50;;;;;;;;;;;;;;;11.18;64.12;99211.59;4453880;32;33398;-76
2023/12/24 12:23:19;;;;;;;;;;;;;;;11.20;64.12;99216.78;4453774;32;34669;-77
2023/12/24 12:25:47;;;;;;;;;;;;;;;11.09;63.28;99221.66;4453578;32;34340;-76
2023/12/24 12:28:14;;;;;;;;;;;;;;;11.05;63.65;99213.69;4449582;32;34627;-76
2023/12/24 12:30:41;;;;;;;;;;;;;;;11.17;63.30;99225.38;4453334;32;34028;-76
2023/12/24 12:33:09;;;;;;;;;;;;;;;11.15;62.92;99239.13;4453635;32;34665;-76
2023/12/24 12:35:36;;;;;;;;;;;;;;;11.18;62.49;99241.78;4453227;32;34230;-77
2023/12/24 12:38:04;;;;;;;;;;;;;;;11.33;61.81;99249.19;4453466;32;34703;-78
2023/12/24 12:40:33;;;;;;;;;;;;;;;11.12;61.75;99255.44;4451589;32;34217;-77
2023/12/24 12:43:09;;;;;;;;;;;;;;;11.32;60.59;99255.19;4433092;32;34564;-77
2023/12/24 12:45:37;;;;;;;;;;;;;;;10.96;61.72;99245.38;4453312;32;34073;-77
2023/12/24 12:48:04;;;;;;;;;;;;;;;10.96;61.78;99253.16;4450039;32;33873;-77
2023/12/24 12:50:32;;;;;;;;;;;;;;;11.07;61.15;99249.22;4452920;32;33369;-76
2023/12/24 12:52:59;;;;;;;;;;;;;;;10.95;61.41;99238.41;4453423;32;34464;-77
2023/12/24 12:55:27;;;;;;;;;;;;;;;10.80;61.93;99239.66;4453178;32;34185;-76
2023/12/24 12:57:54;;;;;;;;;;;;;;;10.91;63.32;99226.19;4453605;32;33388;-75
2023/12/24 13:00:22;;;;;;;;;;;;;;;10.93;62.13;99227.12;4439759;32;33299;-76